sensor_id;sensor_type;location;lat;lon;timestamp;pressure;altitude;pressure_sealevel;temperature;humidity
51452;BME280;37521;52.020;-1.740;2024-01-06T00:01:30;99372.38;;;2.81;100.00
51452;BME280;37521;52.020;-1.740;2024-01-06T00:04:02;99374.97;;;2.81;100.00
51452;BME280;37521;52.020;-1.740;2024-01-06T00:06:32;99372.38;;;2.81;100.00
51452;BME280;37521;52.020;-1.740;2024-01-06T00:09:01;99371.50;;;2.80;100.00
51452;BME280;37521;52.020;-1.740;2024-01-06T00:11:30;99368.88;;;2.82;100.00
51452;BME280;37521;52.020;-1.740;2024-01-06T00:14:00;99372.38;;;2.81;100.00
51452;BME280;37521;52.020;-1.740;2024-01-06T00:16:29;99373.19;;;2.83;100.00
51452;BME280;37521;52.020;-1.740;2024-01-06T00:18:58;99372.38;;;2.81;100.00
51452;BME280;37521;52.020;-1.740;2024-01-06T00:21:29;99386.31;;;2.80;100.00
51452;BME280;37521;52.020;-1.740;2024-01-06T00:23:58;99385.38;;;2.82;100.00
51452;BME280;37521;52.020;-1.740;2024-01-06T00:26:27;99394.06;;;2.83;100.00
51452;BME280;37521;52.020;-1.740;2024-01-06T00:28:56;99395.78;;;2.84;100.00
51452;BME280;37521;52.020;-1.740;2024-01-06T00:31:25;99401.88;;;2.83;100.00
51452;BME280;37521;52.020;-1.740;2024-01-06T00:33:54;99396.66;;;2.83;100.00
51452;BME280;37521;52.020;-1.740;2024-01-06T00:36:23;99405.38;;;2.82;100.00
51452;BME280;37521;52.020;-1.740;2024-01-06T00:38:53;99408.88;;;2.81;100.00
51452;BME280;37521;52.020;-1.740;2024-01-06T00:41:22;99408.00;;;2.82;100.00
51452;BME280;37521;52.020;-1.740;2024-01-06T00:43:50;99411.47;;;2.82;100.00
51452;BME280;37521;52.020;-1.740;2024-01-06T00:46:19;99415.81;;;2.82;100.00
51452;BME280;37521;52.020;-1.740;2024-01-06T00:48:48;99414.91;;;2.83;100.00
51452;BME280;37521;52.020;-1.740;2024-01-06T00:51:17;99421.03;;;2.82;100.00
51452;BME280;37521;52.020;-1.740;2024-01-06T00:53:46;99413.16;;;2.83;100.00
51452;BME280;37521;52.020;-1.740;2024-01-06T00:56:16;99412.31;;;2.83;100.00
51452;BME280;37521;52.020;-1.740;2024-01-06T00:58:45;99421.03;;;2.82;100.00
51452;BME280;37521;52.020;-1.740;2024-01-06T01:01:13;99426.25;;;2.82;100.00
51452;BME280;37521;52.020;-1.740;2024-01-06T01:03:42;99419.34;;;2.79;100.00
51452;BME280;37521;52.020;-1.740;2024-01-06T01:06:11;99428.94;;;2.77;100.00
51452;BME280;37521;52.020;-1.740;2024-01-06T01:08:40;99425.50;;;2.77;100.00
51452;BME280;37521;52.020;-1.740;2024-01-06T01:11:08;99427.25;;;2.76;100.00
51452;BME280;37521;52.020;-1.740;2024-01-06T01:13:39;99433.31;;;2.77;100.00
51452;BME280;37521;52.020;-1.740;2024-01-06T01:16:08;99433.34;;;2.75;100.00
51452;BME280;37521;52.020;-1.740;2024-01-06T01:18:36;99432.50;;;2.73;100.00
51452;BME280;37521;52.020;-1.740;2024-01-06T01:21:05;99433.47;;;2.70;100.00
51452;BME280;37521;52.020;-1.740;2024-01-06T01:23:34;99436.97;;;2.69;100.00
51452;BME280;37521;52.020;-1.740;2024-01-06T01:26:03;99449.16;;;2.67;100.00
51452;BME280;37521;52.020;-1.740;2024-01-06T01:28:32;99442.31;;;2.63;100.00
51452;BME280;37521;52.020;-1.740;2024-01-06T01:31:03;99447.53;;;2.63;100.00
51452;BME280;37521;52.020;-1.740;2024-01-06T01:33:32;99448.41;;;2.62;100.00
51452;BME280;37521;52.020;-1.740;2024-01-06T01:36:01;99454.50;;;2.63;100.00
51452;BME280;37521;52.020;-1.740;2024-01-06T01:38:30;99456.25;;;2.62;100.00
51452;BME280;37521;52.020;-1.740;2024-01-06T01:40:58;99453.59;;;2.64;100.00
51452;BME280;37521;52.020;-1.740;2024-01-06T01:43:28;99464.00;;;2.64;100.00
51452;BME280;37521;52.020;-1.740;2024-01-06T01:45:57;99471.88;;;2.62;100.00
51452;BME280;37521;52.020;-1.740;2024-01-06T01:48:29;99469.31;;;2.61;100.00
51452;BME280;37521;52.020;-1.740;2024-01-06T01:51:01;99471.94;;;2.59;100.00
51452;BME280;37521;52.020;-1.740;2024-01-06T01:53:31;99471.03;;;2.62;100.00
51452;BME280;37521;52.020;-1.740;2024-01-06T01:56:01;99471.88;;;2.62;100.00
51452;BME280;37521;52.020;-1.740;2024-01-06T01:58:31;99484.88;;;2.64;100.00
51452;BME280;37521;52.020;-1.740;2024-01-06T02:01:00;99482.22;;;2.65;100.00
51452;BME280;37521;52.020;-1.740;2024-01-06T02:03:31;99487.38;;;2.68;100.00
51452;BME280;37521;52.020;-1.740;2024-01-06T02:06:01;99490.00;;;2.68;100.00
51452;BME280;37521;52.020;-1.740;2024-01-06T02:08:29;99491.75;;;2.66;100.00
51452;BME280;37521;52.020;-1.740;2024-01-06T02:10:58;99488.31;;;2.64;100.00
51452;BME280;37521;52.020;-1.740;2024-01-06T02:13:33;99489.22;;;2.63;100.00
51452;BME280;37521;52.020;-1.740;2024-01-06T02:16:03;99490.94;;;2.64;100.00
51452;BME280;37521;52.020;-1.740;2024-01-06T02:18:34;99491.78;;;2.65;100.00
51452;BME280;37521;52.020;-1.740;2024-01-06T02:21:03;99496.16;;;2.64;100.00
51452;BME280;37521;52.020;-1.740;2024-01-06T02:23:35;99492.72;;;2.62;100.00
51452;BME280;37521;52.020;-1.740;2024-01-06T02:26:04;99507.66;;;2.56;100.00
51452;BME280;37521;52.020;-1.740;2024-01-06T02:28:33;99499.91;;;2.51;100.00
51452;BME280;37521;52.020;-1.740;2024-01-06T02:31:02;99510.47;;;2.45;100.00
51452;BME280;37521;52.020;-1.740;2024-01-06T02:33:30;99518.38;;;2.42;100.00
51452;BME280;37521;52.020;-1.740;2024-01-06T02:36:01;99526.22;;;2.39;100.00
51452;BME280;37521;52.020;-1.740;2024-01-06T02:38:29;99525.50;;;2.32;100.00
51452;BME280;37521;52.020;-1.740;2024-01-06T02:41:01;99519.44;;;2.32;100.00
51452;BME280;37521;52.020;-1.740;2024-01-06T02:43:30;99522.03;;;2.32;100.00
51452;BME280;37521;52.020;-1.740;2024-01-06T02:45:58;99524.59;;;2.35;100.00
51452;BME280;37521;52.020;-1.740;2024-01-06T02:48:28;99528.00;;;2.37;100.00
51452;BME280;37521;52.020;-1.740;2024-01-06T02:50:58;99538.34;;;2.40;100.00
51452;BME280;37521;52.020;-1.740;2024-01-06T02:53:28;99540.09;;;2.41;100.00
51452;BME280;37521;52.020;-1.740;2024-01-06T02:55:57;99540.09;;;2.41;100.00
51452;BME280;37521;52.020;-1.740;2024-01-06T02:58:28;99543.53;;;2.43;100.00
51452;BME280;37521;52.020;-1.740;2024-01-06T03:00:57;99548.66;;;2.46;100.00
51452;BME280;37521;52.020;-1.740;2024-01-06T03:03:27;99546.06;;;2.46;100.00
51452;BME280;37521;52.020;-1.740;2024-01-06T03:05:55;99558.19;;;2.47;100.00
51452;BME280;37521;52.020;-1.740;2024-01-06T03:08:24;99546.91;;;2.48;100.00
51452;BME280;37521;52.020;-1.740;2024-01-06T03:10:52;99556.44;;;2.49;100.00
51452;BME280;37521;52.020;-1.740;2024-01-06T03:13:20;99552.97;;;2.49;100.00
51452;BME280;37521;52.020;-1.740;2024-01-06T03:15:54;99558.19;;;2.49;100.00
51452;BME280;37521;52.020;-1.740;2024-01-06T03:18:22;99556.47;;;2.48;100.00
51452;BME280;37521;52.020;-1.740;2024-01-06T03:20:51;99566.84;;;2.49;100.00
51452;BME280;37521;52.020;-1.740;2024-01-06T03:23:20;99562.53;;;2.46;100.00
51452;BME280;37521;52.020;-1.740;2024-01-06T03:25:49;99567.78;;;2.45;100.00
51452;BME280;37521;52.020;-1.740;2024-01-06T03:28:17;99569.50;;;2.46;100.00
51452;BME280;37521;52.020;-1.740;2024-01-06T03:30:46;99568.66;;;2.45;100.00
51452;BME280;37521;52.020;-1.740;2024-01-06T03:33:16;99580.00;;;2.43;100.00
51452;BME280;37521;52.020;-1.740;2024-01-06T03:35:45;99580.91;;;2.42;100.00
51452;BME280;37521;52.020;-1.740;2024-01-06T03:38:14;99578.28;;;2.42;100.00
51452;BME280;37521;52.020;-1.740;2024-01-06T03:40:42;99580.91;;;2.40;100.00
51452;BME280;37521;52.020;-1.740;2024-01-06T03:43:11;99583.53;;;2.39;100.00
51452;BME280;37521;52.020;-1.740;2024-01-06T03:45:40;99579.22;;;2.38;100.00
51452;BME280;37521;52.020;-1.740;2024-01-06T03:48:09;99581.84;;;2.38;100.00
51452;BME280;37521;52.020;-1.740;2024-01-06T03:50:39;99586.19;;;2.37;100.00
51452;BME280;37521;52.020;-1.740;2024-01-06T03:53:08;99584.50;;;2.35;100.00
51452;BME280;37521;52.020;-1.740;2024-01-06T03:55:36;99585.38;;;2.34;100.00
51452;BME280;37521;52.020;-1.740;2024-01-06T03:58:05;99595.00;;;2.30;100.00
51452;BME280;37521;52.020;-1.740;2024-01-06T04:00:34;99589.84;;;2.27;100.00
51452;BME280;37521;52.020;-1.740;2024-01-06T04:03:03;99584.72;;;2.24;100.00
51452;BME280;37521;52.020;-1.740;2024-01-06T04:05:33;99598.66;;;2.22;100.00
51452;BME280;37521;52.020;-1.740;2024-01-06T04:08:04;99594.34;;;2.19;100.00
51452;BME280;37521;52.020;-1.740;2024-01-06T04:10:32;99606.53;;;2.18;100.00
51452;BME280;37521;52.020;-1.740;2024-01-06T04:13:02;99603.13;;;2.13;100.00
51452;BME280;37521;52.020;-1.740;2024-01-06T04:15:30;99614.50;;;2.09;100.00
51452;BME280;37521;52.020;-1.740;2024-01-06T04:18:03;99610.22;;;2.05;100.00
51452;BME280;37521;52.020;-1.740;2024-01-06T04:20:32;99605.09;;;2.02;100.00
51452;BME280;37521;52.020;-1.740;2024-01-06T04:23:03;99605.09;;;2.02;100.00
51452;BME280;37521;52.020;-1.740;2024-01-06T04:25:32;99610.34;;;1.99;100.00
51452;BME280;37521;52.020;-1.740;2024-01-06T04:28:01;99604.38;;;1.92;100.00
51452;BME280;37521;52.020;-1.740;2024-01-06T04:30:30;99614.00;;;1.89;100.00
51452;BME280;37521;52.020;-1.740;2024-01-06T04:32:59;99611.50;;;1.83;100.00
51452;BME280;37521;52.020;-1.740;2024-01-06T04:35:28;99616.84;;;1.74;100.00
51452;BME280;37521;52.020;-1.740;2024-01-06T04:37:57;99630.00;;;1.68;100.00
51452;BME280;37521;52.020;-1.740;2024-01-06T04:40:28;99629.97;;;1.69;100.00
51452;BME280;37521;52.020;-1.740;2024-01-06T04:42:56;99635.22;;;1.64;100.00
51452;BME280;37521;52.020;-1.740;2024-01-06T04:45:25;99632.75;;;1.57;100.00
51452;BME280;37521;52.020;-1.740;2024-01-06T04:47:54;99637.13;;;1.53;100.00
51452;BME280;37521;52.020;-1.740;2024-01-06T04:50:23;99645.91;;;1.48;100.00
51452;BME280;37521;52.020;-1.740;2024-01-06T04:52:51;99639.06;;;1.42;100.00
51452;BME280;37521;52.020;-1.740;2024-01-06T04:55:20;99641.72;;;1.38;100.00
51452;BME280;37521;52.020;-1.740;2024-01-06T04:57:50;99643.53;;;1.32;100.00
51452;BME280;37521;52.020;-1.740;2024-01-06T05:00:19;99649.66;;;1.27;100.00
51452;BME280;37521;52.020;-1.740;2024-01-06T05:02:47;99663.63;;;1.23;100.00
51452;BME280;37521;52.020;-1.740;2024-01-06T05:05:16;99659.31;;;1.22;100.00
51452;BME280;37521;52.020;-1.740;2024-01-06T05:07:45;99657.63;;;1.18;100.00
51452;BME280;37521;52.020;-1.740;2024-01-06T05:10:14;99655.94;;;1.14;100.00
51452;BME280;37521;52.020;-1.740;2024-01-06T05:12:42;99663.84;;;1.07;100.00
51452;BME280;37521;52.020;-1.740;2024-01-06T05:15:12;99669.13;;;1.01;100.00
51452;BME280;37521;52.020;-1.740;2024-01-06T05:17:41;99681.25;;;0.99;100.00
51452;BME280;37521;52.020;-1.740;2024-01-06T05:20:10;99679.59;;;0.95;100.00
51452;BME280;37521;52.020;-1.740;2024-01-06T05:22:39;99680.56;;;0.88;100.00
51452;BME280;37521;52.020;-1.740;2024-01-06T05:25:08;99677.09;;;0.86;100.00
51452;BME280;37521;52.020;-1.740;2024-01-06T05:27:37;99691.84;;;0.84;100.00
51452;BME280;37521;52.020;-1.740;2024-01-06T05:30:07;99681.50;;;0.81;100.00
51452;BME280;37521;52.020;-1.740;2024-01-06T05:32:38;99683.22;;;0.82;100.00
51452;BME280;37521;52.020;-1.740;2024-01-06T05:35:07;99686.69;;;0.81;100.00
51452;BME280;37521;52.020;-1.740;2024-01-06T05:37:36;99688.44;;;0.79;100.00
51452;BME280;37521;52.020;-1.740;2024-01-06T05:40:08;99697.13;;;0.78;100.00
51452;BME280;37521;52.020;-1.740;2024-01-06T05:42:38;99698.75;;;0.85;100.00
51452;BME280;37521;52.020;-1.740;2024-01-06T05:45:10;99690.03;;;0.91;100.00
51452;BME280;37521;52.020;-1.740;2024-01-06T05:47:41;99698.66;;;0.96;100.00
51452;BME280;37521;52.020;-1.740;2024-01-06T05:50:10;99703.78;;;1.00;100.00
51452;BME280;37521;52.020;-1.740;2024-01-06T05:52:39;99695.91;;;1.08;100.00
51452;BME280;37521;52.020;-1.740;2024-01-06T05:55:08;99712.31;;;1.12;100.00
51452;BME280;37521;52.020;-1.740;2024-01-06T05:57:37;99710.53;;;1.14;100.00
51452;BME280;37521;52.020;-1.740;2024-01-06T06:00:08;99712.31;;;1.12;100.00
51452;BME280;37521;52.020;-1.740;2024-01-06T06:02:42;99713.19;;;1.11;100.00
51452;BME280;37521;52.020;-1.740;2024-01-06T06:05:11;99724.47;;;1.09;100.00
51452;BME280;37521;52.020;-1.740;2024-01-06T06:07:40;99720.97;;;1.11;100.00
51452;BME280;37521;52.020;-1.740;2024-01-06T06:10:10;99730.50;;;1.12;100.00
51452;BME280;37521;52.020;-1.740;2024-01-06T06:12:39;99727.94;;;1.08;100.00
51452;BME280;37521;52.020;-1.740;2024-01-06T06:15:08;99727.94;;;1.07;100.00
51452;BME280;37521;52.020;-1.740;2024-01-06T06:17:37;99726.22;;;1.06;100.00
51452;BME280;37521;52.020;-1.740;2024-01-06T06:20:08;99734.88;;;1.09;100.00
51452;BME280;37521;52.020;-1.740;2024-01-06T06:22:36;99740.03;;;1.14;100.00
51452;BME280;37521;52.020;-1.740;2024-01-06T06:25:06;99743.44;;;1.18;100.00
51452;BME280;37521;52.020;-1.740;2024-01-06T06:27:35;99740.81;;;1.19;100.00
51452;BME280;37521;52.020;-1.740;2024-01-06T06:30:06;99744.25;;;1.21;100.00
51452;BME280;37521;52.020;-1.740;2024-01-06T06:32:35;99755.50;;;1.23;100.00
51452;BME280;37521;52.020;-1.740;2024-01-06T06:35:05;99759.00;;;1.21;100.00
51452;BME280;37521;52.020;-1.740;2024-01-06T06:37:35;99761.59;;;1.21;100.00
51452;BME280;37521;52.020;-1.740;2024-01-06T06:40:05;99766.81;;;1.19;100.00
51452;BME280;37521;52.020;-1.740;2024-01-06T06:42:34;99768.53;;;1.22;100.00
51452;BME280;37521;52.020;-1.740;2024-01-06T06:45:03;99766.75;;;1.24;100.00
51452;BME280;37521;52.020;-1.740;2024-01-06T06:47:32;99774.56;;;1.24;100.00
51452;BME280;37521;52.020;-1.740;2024-01-06T06:50:02;99781.50;;;1.23;100.00
51452;BME280;37521;52.020;-1.740;2024-01-06T06:52:31;99783.25;;;1.23;100.00
51452;BME280;37521;52.020;-1.740;2024-01-06T06:55:01;99788.44;;;1.23;100.00
51452;BME280;37521;52.020;-1.740;2024-01-06T06:57:31;99794.53;;;1.20;100.00
51452;BME280;37521;52.020;-1.740;2024-01-06T07:00:00;99794.63;;;1.13;100.00
51452;BME280;37521;52.020;-1.740;2024-01-06T07:02:29;99802.50;;;1.05;100.00
51452;BME280;37521;52.020;-1.740;2024-01-06T07:04:58;99805.22;;;0.96;100.00
51452;BME280;37521;52.020;-1.740;2024-01-06T07:07:27;99821.75;;;0.90;100.00
51452;BME280;37521;52.020;-1.740;2024-01-06T07:09:56;99814.00;;;0.84;100.00
51452;BME280;37521;52.020;-1.740;2024-01-06T07:12:26;99824.44;;;0.78;100.00
51452;BME280;37521;52.020;-1.740;2024-01-06T07:14:55;99828.88;;;0.70;100.00
51452;BME280;37521;52.020;-1.740;2024-01-06T07:17:25;99834.13;;;0.64;100.00
51452;BME280;37521;52.020;-1.740;2024-01-06T07:19:54;99841.09;;;0.59;100.00
51452;BME280;37521;52.020;-1.740;2024-01-06T07:22:23;99846.28;;;0.59;100.00
51452;BME280;37521;52.020;-1.740;2024-01-06T07:24:51;99855.78;;;0.60;100.00
51452;BME280;37521;52.020;-1.740;2024-01-06T07:27:20;99867.94;;;0.58;100.00
51452;BME280;37521;52.020;-1.740;2024-01-06T07:29:50;99869.72;;;0.54;100.00
51452;BME280;37521;52.020;-1.740;2024-01-06T07:32:19;99874.94;;;0.46;100.00
51452;BME280;37521;52.020;-1.740;2024-01-06T07:34:49;99876.69;;;0.44;100.00
51452;BME280;37521;52.020;-1.740;2024-01-06T07:37:18;99880.22;;;0.37;100.00
51452;BME280;37521;52.020;-1.740;2024-01-06T07:39:46;99884.56;;;0.32;100.00
51452;BME280;37521;52.020;-1.740;2024-01-06T07:42:15;99896.75;;;0.25;100.00
51452;BME280;37521;52.020;-1.740;2024-01-06T07:44:44;99907.19;;;0.21;100.00
51452;BME280;37521;52.020;-1.740;2024-01-06T07:47:14;99908.09;;;0.14;100.00
51452;BME280;37521;52.020;-1.740;2024-01-06T07:49:43;99905.50;;;0.11;100.00
51452;BME280;37521;52.020;-1.740;2024-01-06T07:52:11;99908.97;;;0.10;100.00
51452;BME280;37521;52.020;-1.740;2024-01-06T07:54:40;99912.44;;;0.06;100.00
51452;BME280;37521;52.020;-1.740;2024-01-06T07:57:09;99918.50;;;0.05;100.00
51452;BME280;37521;52.020;-1.740;2024-01-06T07:59:39;99922.84;;;0.03;100.00
51452;BME280;37521;52.020;-1.740;2024-01-06T08:02:08;99926.34;;;-0.05;100.00
51452;BME280;37521;52.020;-1.740;2024-01-06T08:04:38;99926.34;;;-0.08;100.00
51452;BME280;37521;52.020;-1.740;2024-01-06T08:07:07;99928.13;;;-0.13;100.00
51452;BME280;37521;52.020;-1.740;2024-01-06T08:09:36;99937.66;;;-0.18;100.00
51452;BME280;37521;52.020;-1.740;2024-01-06T08:12:08;99940.25;;;-0.24;100.00
51452;BME280;37521;52.020;-1.740;2024-01-06T08:14:36;99950.66;;;-0.36;100.00
51452;BME280;37521;52.020;-1.740;2024-01-06T08:17:05;99954.16;;;-0.43;100.00
51452;BME280;37521;52.020;-1.740;2024-01-06T08:19:34;99955.88;;;-0.42;100.00
51452;BME280;37521;52.020;-1.740;2024-01-06T08:22:04;99960.19;;;-0.38;100.00
51452;BME280;37521;52.020;-1.740;2024-01-06T08:24:33;99976.59;;;-0.35;100.00
51452;BME280;37521;52.020;-1.740;2024-01-06T08:27:03;99980.94;;;-0.38;100.00
51452;BME280;37521;52.020;-1.740;2024-01-06T08:29:32;99981.81;;;-0.36;100.00
51452;BME280;37521;52.020;-1.740;2024-01-06T08:32:02;99985.25;;;-0.34;100.00
51452;BME280;37521;52.020;-1.740;2024-01-06T08:34:32;99987.81;;;-0.28;100.00
51452;BME280;37521;52.020;-1.740;2024-01-06T08:37:01;99985.19;;;-0.16;100.00
51452;BME280;37521;52.020;-1.740;2024-01-06T08:39:32;99990.28;;;0.10;100.00
51452;BME280;37521;52.020;-1.740;2024-01-06T08:42:02;99991.06;;;0.29;100.00
51452;BME280;37521;52.020;-1.740;2024-01-06T08:44:31;99986.66;;;0.43;100.00
51452;BME280;37521;52.020;-1.740;2024-01-06T08:46:59;99994.41;;;0.52;100.00
51452;BME280;37521;52.020;-1.740;2024-01-06T08:49:29;99991.75;;;0.59;100.00
51452;BME280;37521;52.020;-1.740;2024-01-06T08:51:58;100003.03;;;0.58;100.00
51452;BME280;37521;52.020;-1.740;2024-01-06T08:54:28;100003.91;;;0.61;100.00
51452;BME280;37521;52.020;-1.740;2024-01-06T08:56:58;100003.84;;;0.69;100.00
51452;BME280;37521;52.020;-1.740;2024-01-06T08:59:27;100007.31;;;0.68;100.00
51452;BME280;37521;52.020;-1.740;2024-01-06T09:01:56;100012.50;;;0.68;100.00
51452;BME280;37521;52.020;-1.740;2024-01-06T09:04:25;100009.88;;;0.71;100.00
51452;BME280;37521;52.020;-1.740;2024-01-06T09:06:54;100011.59;;;0.73;100.00
51452;BME280;37521;52.020;-1.740;2024-01-06T09:09:23;100012.50;;;0.69;100.00
51452;BME280;37521;52.020;-1.740;2024-01-06T09:11:52;100014.28;;;0.63;100.00
51452;BME280;37521;52.020;-1.740;2024-01-06T09:14:22;100035.94;;;0.59;100.00
51452;BME280;37521;52.020;-1.740;2024-01-06T09:16:50;100036.78;;;0.59;100.00
51452;BME280;37521;52.020;-1.740;2024-01-06T09:19:19;100039.34;;;0.67;100.00
51452;BME280;37521;52.020;-1.740;2024-01-06T09:21:49;100043.66;;;0.75;100.00
51452;BME280;37521;52.020;-1.740;2024-01-06T09:24:18;100048.75;;;0.86;100.00
51452;BME280;37521;52.020;-1.740;2024-01-06T09:26:46;100061.72;;;0.95;100.00
51452;BME280;37521;52.020;-1.740;2024-01-06T09:29:17;100064.25;;;1.04;100.00
51452;BME280;37521;52.020;-1.740;2024-01-06T09:31:47;100072.00;;;1.11;100.00
51452;BME280;37521;52.020;-1.740;2024-01-06T09:34:16;100076.31;;;1.15;100.00
51452;BME280;37521;52.020;-1.740;2024-01-06T09:36:45;100077.16;;;1.17;100.00
51452;BME280;37521;52.020;-1.740;2024-01-06T09:39:13;100073.72;;;1.15;100.00
51452;BME280;37521;52.020;-1.740;2024-01-06T09:41:42;100086.72;;;1.12;100.00
51452;BME280;37521;52.020;-1.740;2024-01-06T09:44:11;100087.63;;;1.06;100.00
51452;BME280;37521;52.020;-1.740;2024-01-06T09:46:43;100080.75;;;0.99;100.00
51452;BME280;37521;52.020;-1.740;2024-01-06T09:49:13;100089.44;;;0.93;100.00
51452;BME280;37521;52.020;-1.740;2024-01-06T09:51:42;100092.97;;;0.88;100.00
51452;BME280;37521;52.020;-1.740;2024-01-06T09:54:12;100093.81;;;0.85;100.00
51452;BME280;37521;52.020;-1.740;2024-01-06T09:56:45;100099.06;;;0.82;100.00
51452;BME280;37521;52.020;-1.740;2024-01-06T09:59:14;100092.09;;;0.84;100.00
51452;BME280;37521;52.020;-1.740;2024-01-06T10:01:43;100099.03;;;0.88;100.00
51452;BME280;37521;52.020;-1.740;2024-01-06T10:04:13;100098.13;;;0.95;100.00
51452;BME280;37521;52.020;-1.740;2024-01-06T10:06:48;100100.69;;;1.01;100.00
51452;BME280;37521;52.020;-1.740;2024-01-06T10:09:17;100103.22;;;1.06;100.00
51452;BME280;37521;52.020;-1.740;2024-01-06T10:11:49;100109.25;;;1.16;100.00
51452;BME280;37521;52.020;-1.740;2024-01-06T10:14:18;100110.03;;;1.25;100.00
51452;BME280;37521;52.020;-1.740;2024-01-06T10:16:47;100112.56;;;1.38;100.00
51452;BME280;37521;52.020;-1.740;2024-01-06T10:19:18;100109.91;;;1.45;100.00
51452;BME280;37521;52.020;-1.740;2024-01-06T10:21:48;100110.72;;;1.50;100.00
51452;BME280;37521;52.020;-1.740;2024-01-06T10:24:17;100117.66;;;1.54;100.00
51452;BME280;37521;52.020;-1.740;2024-01-06T10:26:46;100124.59;;;1.52;100.00
51452;BME280;37521;52.020;-1.740;2024-01-06T10:29:15;100126.31;;;1.53;100.00
51452;BME280;37521;52.020;-1.740;2024-01-06T10:31:44;100123.69;;;1.53;100.00
51452;BME280;37521;52.020;-1.740;2024-01-06T10:34:20;100123.69;;;1.56;100.00
51452;BME280;37521;52.020;-1.740;2024-01-06T10:36:50;100114.97;;;1.63;100.00
51452;BME280;37521;52.020;-1.740;2024-01-06T10:39:19;100114.94;;;1.68;100.00
51452;BME280;37521;52.020;-1.740;2024-01-06T10:41:49;100120.94;;;1.75;100.00
51452;BME280;37521;52.020;-1.740;2024-01-06T10:44:19;100116.50;;;1.84;100.00
51452;BME280;37521;52.020;-1.740;2024-01-06T10:46:50;100119.09;;;1.86;100.00
51452;BME280;37521;52.020;-1.740;2024-01-06T10:49:22;100119.06;;;1.90;100.00
51452;BME280;37521;52.020;-1.740;2024-01-06T10:51:53;100124.22;;;1.95;100.00
51452;BME280;37521;52.020;-1.740;2024-01-06T10:54:24;100127.69;;;1.97;100.00
51452;BME280;37521;52.020;-1.740;2024-01-06T10:56:53;100122.47;;;1.97;100.00
51452;BME280;37521;52.020;-1.740;2024-01-06T10:59:25;100123.44;;;1.88;100.00
51452;BME280;37521;52.020;-1.740;2024-01-06T11:01:55;100130.31;;;1.92;100.00
51452;BME280;37521;52.020;-1.740;2024-01-06T11:04:26;100126.81;;;1.97;100.00
51452;BME280;37521;52.020;-1.740;2024-01-06T11:06:55;100130.22;;;2.03;100.00
51452;BME280;37521;52.020;-1.740;2024-01-06T11:09:28;100137.97;;;2.09;100.00
51452;BME280;37521;52.020;-1.740;2024-01-06T11:12:01;100143.09;;;2.18;100.00
51452;BME280;37521;52.020;-1.740;2024-01-06T11:14:30;100134.31;;;2.29;100.00
51452;BME280;37521;52.020;-1.740;2024-01-06T11:17:02;100126.28;;;2.49;100.00
51452;BME280;37521;52.020;-1.740;2024-01-06T11:19:45;100131.34;;;2.59;100.00
51452;BME280;37521;52.020;-1.740;2024-01-06T11:22:19;100127.63;;;2.79;100.00
51452;BME280;37521;52.020;-1.740;2024-01-06T11:24:49;100132.16;;;2.64;100.00
51452;BME280;37521;52.020;-1.740;2024-01-06T11:27:19;100137.53;;;2.51;100.00
51452;BME280;37521;52.020;-1.740;2024-01-06T11:29:51;100140.25;;;2.41;100.00
51452;BME280;37521;52.020;-1.740;2024-01-06T11:32:24;100142.91;;;2.34;100.00
51452;BME280;37521;52.020;-1.740;2024-01-06T11:34:56;100129.09;;;2.29;100.00
51452;BME280;37521;52.020;-1.740;2024-01-06T11:37:39;100136.03;;;2.27;100.00
51452;BME280;37521;52.020;-1.740;2024-01-06T11:40:23;100146.44;;;2.30;100.00
51452;BME280;37521;52.020;-1.740;2024-01-06T11:43:01;100149.91;;;2.32;100.00
51452;BME280;37521;52.020;-1.740;2024-01-06T11:45:33;100141.25;;;2.30;100.00
51452;BME280;37521;52.020;-1.740;2024-01-06T11:48:04;100139.53;;;2.29;100.00
51452;BME280;37521;52.020;-1.740;2024-01-06T11:50:37;100148.22;;;2.28;100.00
51452;BME280;37521;52.020;-1.740;2024-01-06T11:53:07;100136.03;;;2.30;100.00
51452;BME280;37521;52.020;-1.740;2024-01-06T11:55:38;100135.97;;;2.36;100.00
51452;BME280;37521;52.020;-1.740;2024-01-06T11:58:07;100139.41;;;2.41;100.00
51452;BME280;37521;52.020;-1.740;2024-01-06T12:00:36;100137.63;;;2.43;100.00
51452;BME280;37521;52.020;-1.740;2024-01-06T12:03:08;100128.03;;;2.48;100.00
51452;BME280;37521;52.020;-1.740;2024-01-06T12:05:38;100134.00;;;2.53;100.00
51452;BME280;37521;52.020;-1.740;2024-01-06T12:08:07;100129.66;;;2.55;100.00
51452;BME280;37521;52.020;-1.740;2024-01-06T12:10:36;100130.56;;;2.54;100.00
51452;BME280;37521;52.020;-1.740;2024-01-06T12:13:06;100132.28;;;2.52;100.00
51452;BME280;37521;52.020;-1.740;2024-01-06T12:15:37;100133.19;;;2.51;100.00
51452;BME280;37521;52.020;-1.740;2024-01-06T12:18:07;100134.03;;;2.55;100.00
51452;BME280;37521;52.020;-1.740;2024-01-06T12:20:38;100129.59;;;2.61;100.00
51452;BME280;37521;52.020;-1.740;2024-01-06T12:23:06;100139.09;;;2.65;100.00
51452;BME280;37521;52.020;-1.740;2024-01-06T12:25:35;100141.66;;;2.70;100.00
51452;BME280;37521;52.020;-1.740;2024-01-06T12:28:07;100137.28;;;2.70;100.00
51452;BME280;37521;52.020;-1.740;2024-01-06T12:30:38;100134.75;;;2.64;100.00
51452;BME280;37521;52.020;-1.740;2024-01-06T12:33:07;100132.22;;;2.61;100.00
51452;BME280;37521;52.020;-1.740;2024-01-06T12:35:37;100132.25;;;2.57;100.00
51452;BME280;37521;52.020;-1.740;2024-01-06T12:38:08;100134.88;;;2.55;100.00
51452;BME280;37521;52.020;-1.740;2024-01-06T12:40:37;100131.38;;;2.58;100.00
51452;BME280;37521;52.020;-1.740;2024-01-06T12:43:07;100129.56;;;2.63;100.00
51452;BME280;37521;52.020;-1.740;2024-01-06T12:45:35;100139.06;;;2.68;100.00
51452;BME280;37521;52.020;-1.740;2024-01-06T12:48:05;100139.84;;;2.73;100.00
51452;BME280;37521;52.020;-1.740;2024-01-06T12:50:34;100138.88;;;2.81;100.00
51452;BME280;37521;52.020;-1.740;2024-01-06T12:53:05;100138.81;;;2.87;100.00
51452;BME280;37521;52.020;-1.740;2024-01-06T12:55:34;100140.59;;;2.85;100.00
51452;BME280;37521;52.020;-1.740;2024-01-06T12:58:02;100142.44;;;2.77;100.00